sensor_id;sensor_type;location;lat;lon;timestamp;pressure;altitude;pressure_sealevel;temperature;humidity
5053;BME280;2545;50.892;5.740;2024-02-21T00:02:10;56406.22;;;-142.21;80.55
5053;BME280;2545;50.892;5.740;2024-02-21T00:04:35;56410.16;;;-142.21;80.53
5053;BME280;2545;50.892;5.740;2024-02-21T00:07:01;56419.97;;;-142.21;80.39
5053;BME280;2545;50.892;5.740;2024-02-21T00:09:29;56376.81;;;-142.21;80.47
5053;BME280;2545;50.892;5.740;2024-02-21T00:11:54;56402.31;;;-142.21;80.93
5053;BME280;2545;50.892;5.740;2024-02-21T00:14:19;56400.34;;;-142.21;80.62
5053;BME280;2545;50.892;5.740;2024-02-21T00:16:45;56386.63;;;-142.21;80.46
5053;BME280;2545;50.892;5.740;2024-02-21T00:19:10;56406.22;;;-142.21;80.48
5053;BME280;2545;50.892;5.740;2024-02-21T00:21:36;56361.13;;;-142.21;80.42
5053;BME280;2545;50.892;5.740;2024-02-21T00:24:01;56402.31;;;-142.21;80.55
5053;BME280;2545;50.892;5.740;2024-02-21T00:26:26;56429.75;;;-142.21;80.45
5053;BME280;2545;50.892;5.740;2024-02-21T00:28:52;56398.38;;;-142.21;80.92
5053;BME280;2545;50.892;5.740;2024-02-21T00:31:18;56376.81;;;-142.21;80.94
5053;BME280;2545;50.892;5.740;2024-02-21T00:33:43;56398.38;;;-142.21;80.75
5053;BME280;2545;50.892;5.740;2024-02-21T00:36:08;56402.31;;;-142.21;80.73
5053;BME280;2545;50.892;5.740;2024-02-21T00:38:34;56421.91;;;-142.21;81.00
5053;BME280;2545;50.892;5.740;2024-02-21T00:40:59;56394.47;;;-142.21;81.31
5053;BME280;2545;50.892;5.740;2024-02-21T00:43:24;56412.13;;;-142.21;81.04
5053;BME280;2545;50.892;5.740;2024-02-21T00:45:50;56418.00;;;-142.21;80.96
5053;BME280;2545;50.892;5.740;2024-02-21T00:48:15;56410.16;;;-142.21;81.20
5053;BME280;2545;50.892;5.740;2024-02-21T00:50:41;56412.13;;;-142.21;81.20
5053;BME280;2545;50.892;5.740;2024-02-21T00:53:06;56402.31;;;-142.21;80.89
5053;BME280;2545;50.892;5.740;2024-02-21T00:55:31;56412.13;;;-142.21;80.98
5053;BME280;2545;50.892;5.740;2024-02-21T00:57:57;56414.06;;;-142.21;81.13
5053;BME280;2545;50.892;5.740;2024-02-21T01:00:22;56421.91;;;-142.21;81.26
5053;BME280;2545;50.892;5.740;2024-02-21T01:02:48;56396.44;;;-142.21;81.32
5053;BME280;2545;50.892;5.740;2024-02-21T01:05:13;56414.06;;;-142.21;81.32
5053;BME280;2545;50.892;5.740;2024-02-21T01:07:38;56412.13;;;-142.21;81.22
5053;BME280;2545;50.892;5.740;2024-02-21T01:10:04;56433.69;;;-142.21;81.18
5053;BME280;2545;50.892;5.740;2024-02-21T01:12:30;56408.19;;;-142.21;80.99
5053;BME280;2545;50.892;5.740;2024-02-21T01:14:55;56390.53;;;-142.21;80.77
5053;BME280;2545;50.892;5.740;2024-02-21T01:17:20;56435.66;;;-142.21;81.12
5053;BME280;2545;50.892;5.740;2024-02-21T01:19:46;56414.06;;;-142.21;81.39
5053;BME280;2545;50.892;5.740;2024-02-21T01:22:11;56418.00;;;-142.21;81.35
5053;BME280;2545;50.892;5.740;2024-02-21T01:24:37;56378.78;;;-142.21;81.46
5053;BME280;2545;50.892;5.740;2024-02-21T01:27:02;56425.84;;;-142.21;81.37
5053;BME280;2545;50.892;5.740;2024-02-21T01:29:28;56396.44;;;-142.21;81.35
5053;BME280;2545;50.892;5.740;2024-02-21T01:31:53;56378.78;;;-142.21;80.99
5053;BME280;2545;50.892;5.740;2024-02-21T01:34:18;56406.22;;;-142.21;81.38
5053;BME280;2545;50.892;5.740;2024-02-21T01:36:43;56412.13;;;-142.21;81.69
5053;BME280;2545;50.892;5.740;2024-02-21T01:39:09;56394.47;;;-142.21;81.36
5053;BME280;2545;50.892;5.740;2024-02-21T01:41:34;56406.22;;;-142.21;81.33
5053;BME280;2545;50.892;5.740;2024-02-21T01:43:59;56398.38;;;-142.21;81.66
5053;BME280;2545;50.892;5.740;2024-02-21T01:46:26;56421.91;;;-142.21;81.58
5053;BME280;2545;50.892;5.740;2024-02-21T01:48:55;56429.75;;;-142.21;81.49
5053;BME280;2545;50.892;5.740;2024-02-21T01:51:23;56394.47;;;-142.21;81.67
5053;BME280;2545;50.892;5.740;2024-02-21T01:53:48;56394.47;;;-142.21;81.55
5053;BME280;2545;50.892;5.740;2024-02-21T01:56:16;56394.47;;;-142.21;82.09
5053;BME280;2545;50.892;5.740;2024-02-21T01:58:42;56435.66;;;-142.21;81.83
5053;BME280;2545;50.892;5.740;2024-02-21T02:01:07;56423.88;;;-142.21;81.80
5053;BME280;2545;50.892;5.740;2024-02-21T02:03:33;56398.38;;;-142.21;81.88
5053;BME280;2545;50.892;5.740;2024-02-21T02:05:59;56421.91;;;-142.21;81.81
5053;BME280;2545;50.892;5.740;2024-02-21T02:08:25;56418.00;;;-142.21;81.72
5053;BME280;2545;50.892;5.740;2024-02-21T02:10:51;56427.81;;;-142.21;81.41
5053;BME280;2545;50.892;5.740;2024-02-21T02:13:17;56402.31;;;-142.21;81.36
5053;BME280;2545;50.892;5.740;2024-02-21T02:15:44;56390.53;;;-142.21;81.38
5053;BME280;2545;50.892;5.740;2024-02-21T02:18:10;56370.94;;;-142.21;81.39
5053;BME280;2545;50.892;5.740;2024-02-21T02:20:36;56380.75;;;-142.21;81.09
5053;BME280;2545;50.892;5.740;2024-02-21T02:23:20;56441.53;;;-142.21;81.09
5053;BME280;2545;50.892;5.740;2024-02-21T02:25:46;56372.91;;;-142.21;80.73
5053;BME280;2545;50.892;5.740;2024-02-21T02:28:14;56425.84;;;-142.21;81.21
5053;BME280;2545;50.892;5.740;2024-02-21T02:30:40;56398.38;;;-142.21;81.13
5053;BME280;2545;50.892;5.740;2024-02-21T02:33:06;56390.53;;;-142.21;80.55
5053;BME280;2545;50.892;5.740;2024-02-21T02:35:32;56404.28;;;-142.21;80.78
5053;BME280;2545;50.892;5.740;2024-02-21T02:37:57;56429.75;;;-142.21;80.81
5053;BME280;2545;50.892;5.740;2024-02-21T02:40:23;56398.38;;;-142.21;80.78
5053;BME280;2545;50.892;5.740;2024-02-21T02:42:49;56406.22;;;-142.21;80.89
5053;BME280;2545;50.892;5.740;2024-02-21T02:45:18;56419.97;;;-142.21;81.14
5053;BME280;2545;50.892;5.740;2024-02-21T02:47:47;56406.22;;;-142.21;81.57
5053;BME280;2545;50.892;5.740;2024-02-21T02:50:12;56445.44;;;-142.21;81.60
5053;BME280;2545;50.892;5.740;2024-02-21T02:52:37;56408.19;;;-142.21;81.29
5053;BME280;2545;50.892;5.740;2024-02-21T02:55:04;56398.38;;;-142.21;81.18
5053;BME280;2545;50.892;5.740;2024-02-21T02:57:30;56402.31;;;-142.21;81.48
5053;BME280;2545;50.892;5.740;2024-02-21T02:59:55;56398.38;;;-142.21;81.68
5053;BME280;2545;50.892;5.740;2024-02-21T03:02:20;56421.91;;;-142.21;81.76
5053;BME280;2545;50.892;5.740;2024-02-21T03:04:46;56400.34;;;-142.21;81.86
5053;BME280;2545;50.892;5.740;2024-02-21T03:07:11;56404.28;;;-142.21;81.85
5053;BME280;2545;50.892;5.740;2024-02-21T03:09:37;56386.63;;;-142.21;82.15
5053;BME280;2545;50.892;5.740;2024-02-21T03:12:04;56435.66;;;-142.21;82.06
5053;BME280;2545;50.892;5.740;2024-02-21T03:14:29;56421.91;;;-142.21;81.86
5053;BME280;2545;50.892;5.740;2024-02-21T03:16:55;56382.69;;;-142.21;81.50
5053;BME280;2545;50.892;5.740;2024-02-21T03:19:20;56427.81;;;-142.21;81.51
5053;BME280;2545;50.892;5.740;2024-02-21T03:21:46;56378.78;;;-142.21;82.15
5053;BME280;2545;50.892;5.740;2024-02-21T03:24:11;56394.47;;;-142.21;82.15
5053;BME280;2545;50.892;5.740;2024-02-21T03:26:36;56404.28;;;-142.21;82.36
5053;BME280;2545;50.892;5.740;2024-02-21T03:29:03;56376.81;;;-142.21;82.53
5053;BME280;2545;50.892;5.740;2024-02-21T03:31:28;56431.72;;;-142.21;82.72
5053;BME280;2545;50.892;5.740;2024-02-21T03:33:54;56441.53;;;-142.21;82.75
5053;BME280;2545;50.892;5.740;2024-02-21T03:36:19;56396.44;;;-142.21;82.54
5053;BME280;2545;50.892;5.740;2024-02-21T03:38:44;56423.88;;;-142.21;82.27
5053;BME280;2545;50.892;5.740;2024-02-21T03:41:10;56412.13;;;-142.21;82.49
5053;BME280;2545;50.892;5.740;2024-02-21T03:43:37;56421.91;;;-142.21;82.33
5053;BME280;2545;50.892;5.740;2024-02-21T03:46:04;56418.00;;;-142.21;82.56
5053;BME280;2545;50.892;5.740;2024-02-21T03:48:30;56380.75;;;-142.21;82.50
5053;BME280;2545;50.892;5.740;2024-02-21T03:50:56;56402.31;;;-142.21;82.95
5053;BME280;2545;50.892;5.740;2024-02-21T03:53:22;56390.53;;;-142.21;83.27
5053;BME280;2545;50.892;5.740;2024-02-21T03:55:47;56429.75;;;-142.21;82.99
5053;BME280;2545;50.892;5.740;2024-02-21T03:58:12;56402.31;;;-142.21;83.34
5053;BME280;2545;50.892;5.740;2024-02-21T04:00:38;56406.22;;;-142.21;83.14
5053;BME280;2545;50.892;5.740;2024-02-21T04:03:04;56388.59;;;-142.21;83.01
5053;BME280;2545;50.892;5.740;2024-02-21T04:05:29;56414.06;;;-142.21;82.99
5053;BME280;2545;50.892;5.740;2024-02-21T04:07:54;56429.75;;;-142.21;82.65
5053;BME280;2545;50.892;5.740;2024-02-21T04:10:20;56410.16;;;-142.21;82.48
5053;BME280;2545;50.892;5.740;2024-02-21T04:12:45;56427.81;;;-142.21;82.37
5053;BME280;2545;50.892;5.740;2024-02-21T04:15:10;56408.19;;;-142.21;82.17
5053;BME280;2545;50.892;5.740;2024-02-21T04:17:36;56410.16;;;-142.21;82.46
5053;BME280;2545;50.892;5.740;2024-02-21T04:20:05;56404.28;;;-142.21;82.25
5053;BME280;2545;50.892;5.740;2024-02-21T04:22:32;56410.16;;;-142.21;82.54
5053;BME280;2545;50.892;5.740;2024-02-21T04:25:02;56384.66;;;-142.21;82.70
5053;BME280;2545;50.892;5.740;2024-02-21T04:27:27;56433.69;;;-142.21;83.04
5053;BME280;2545;50.892;5.740;2024-02-21T04:29:53;56425.84;;;-142.21;82.52
5053;BME280;2545;50.892;5.740;2024-02-21T04:32:18;56418.00;;;-142.21;82.45
5053;BME280;2545;50.892;5.740;2024-02-21T04:34:44;56414.06;;;-142.21;82.45
5053;BME280;2545;50.892;5.740;2024-02-21T04:37:09;56392.50;;;-142.21;82.39
5053;BME280;2545;50.892;5.740;2024-02-21T04:39:35;56367.00;;;-142.21;82.54
5053;BME280;2545;50.892;5.740;2024-02-21T04:42:02;56398.38;;;-142.21;82.63
5053;BME280;2545;50.892;5.740;2024-02-21T04:44:27;56412.13;;;-142.21;82.27
5053;BME280;2545;50.892;5.740;2024-02-21T04:46:54;56370.94;;;-142.21;82.11
5053;BME280;2545;50.892;5.740;2024-02-21T04:49:19;56402.31;;;-142.21;82.13
5053;BME280;2545;50.892;5.740;2024-02-21T04:51:45;56390.53;;;-142.21;82.24
5053;BME280;2545;50.892;5.740;2024-02-21T04:54:10;56408.19;;;-142.21;81.97
5053;BME280;2545;50.892;5.740;2024-02-21T04:56:35;56431.72;;;-142.21;81.74
5053;BME280;2545;50.892;5.740;2024-02-21T04:59:01;56410.16;;;-142.21;81.79
5053;BME280;2545;50.892;5.740;2024-02-21T05:01:28;56410.16;;;-142.21;81.69
5053;BME280;2545;50.892;5.740;2024-02-21T05:03:53;56394.47;;;-142.21;81.74
5053;BME280;2545;50.892;5.740;2024-02-21T05:06:18;56431.72;;;-142.21;81.82
5053;BME280;2545;50.892;5.740;2024-02-21T05:08:44;56400.34;;;-142.21;81.97
5053;BME280;2545;50.892;5.740;2024-02-21T05:11:10;56392.50;;;-142.21;81.49
5053;BME280;2545;50.892;5.740;2024-02-21T05:13:35;56412.13;;;-142.21;81.76
5053;BME280;2545;50.892;5.740;2024-02-21T05:16:02;56359.16;;;-142.21;81.70
5053;BME280;2545;50.892;5.740;2024-02-21T05:18:28;56370.94;;;-142.21;81.49
5053;BME280;2545;50.892;5.740;2024-02-21T05:20:53;56439.56;;;-142.21;81.17
5053;BME280;2545;50.892;5.740;2024-02-21T05:23:19;56380.75;;;-142.21;81.62
5053;BME280;2545;50.892;5.740;2024-02-21T05:25:44;56390.53;;;-142.21;82.01
5053;BME280;2545;50.892;5.740;2024-02-21T05:28:09;56418.00;;;-142.21;82.35
5053;BME280;2545;50.892;5.740;2024-02-21T05:30:36;56404.28;;;-142.21;82.42
5053;BME280;2545;50.892;5.740;2024-02-21T05:33:05;56404.28;;;-142.21;83.41
5053;BME280;2545;50.892;5.740;2024-02-21T05:35:31;56388.59;;;-142.21;84.25
5053;BME280;2545;50.892;5.740;2024-02-21T05:37:56;56433.69;;;-142.21;86.02
5053;BME280;2545;50.892;5.740;2024-02-21T05:40:22;56435.66;;;-142.21;87.93
5053;BME280;2545;50.892;5.740;2024-02-21T05:42:49;56427.81;;;-142.21;89.05
5053;BME280;2545;50.892;5.740;2024-02-21T05:45:16;56412.13;;;-142.21;89.70
5053;BME280;2545;50.892;5.740;2024-02-21T05:47:41;56418.00;;;-142.21;89.75
5053;BME280;2545;50.892;5.740;2024-02-21T05:50:07;56423.88;;;-142.21;89.31
5053;BME280;2545;50.892;5.740;2024-02-21T05:52:32;56412.13;;;-142.21;89.34
5053;BME280;2545;50.892;5.740;2024-02-21T05:54:58;56437.59;;;-142.21;89.08
5053;BME280;2545;50.892;5.740;2024-02-21T05:57:23;56388.59;;;-142.21;87.15
5053;BME280;2545;50.892;5.740;2024-02-21T05:59:48;56418.00;;;-142.21;86.43
5053;BME280;2545;50.892;5.740;2024-02-21T06:02:13;56392.50;;;-142.21;85.16
5053;BME280;2545;50.892;5.740;2024-02-21T06:04:39;56418.00;;;-142.21;84.29
5053;BME280;2545;50.892;5.740;2024-02-21T06:07:04;56394.47;;;-142.21;83.33
5053;BME280;2545;50.892;5.740;2024-02-21T06:09:30;56388.59;;;-142.21;82.03
5053;BME280;2545;50.892;5.740;2024-02-21T06:11:55;56439.56;;;-142.21;81.53
5053;BME280;2545;50.892;5.740;2024-02-21T06:14:20;56394.47;;;-142.21;81.83
5053;BME280;2545;50.892;5.740;2024-02-21T06:16:46;56439.56;;;-142.21;82.08
5053;BME280;2545;50.892;5.740;2024-02-21T06:19:11;56382.69;;;-142.21;82.23
5053;BME280;2545;50.892;5.740;2024-02-21T06:21:36;56445.44;;;-142.21;82.49
5053;BME280;2545;50.892;5.740;2024-02-21T06:24:02;56402.31;;;-142.21;82.68
5053;BME280;2545;50.892;5.740;2024-02-21T06:26:28;56398.38;;;-142.21;83.06
5053;BME280;2545;50.892;5.740;2024-02-21T06:28:54;56410.16;;;-142.21;82.61
5053;BME280;2545;50.892;5.740;2024-02-21T06:31:21;56404.28;;;-142.21;82.22
5053;BME280;2545;50.892;5.740;2024-02-21T06:33:46;56427.81;;;-142.21;82.62
5053;BME280;2545;50.892;5.740;2024-02-21T06:36:12;56421.91;;;-142.21;82.17
5053;BME280;2545;50.892;5.740;2024-02-21T06:38:37;56404.28;;;-142.21;82.32
5053;BME280;2545;50.892;5.740;2024-02-21T06:41:03;56390.53;;;-142.21;81.53
5053;BME280;2545;50.892;5.740;2024-02-21T06:43:29;56414.06;;;-142.21;81.26
5053;BME280;2545;50.892;5.740;2024-02-21T06:45:55;56367.00;;;-142.21;81.70
5053;BME280;2545;50.892;5.740;2024-02-21T06:48:22;56406.22;;;-142.21;81.77
5053;BME280;2545;50.892;5.740;2024-02-21T06:50:47;56416.03;;;-142.21;81.97
5053;BME280;2545;50.892;5.740;2024-02-21T06:53:13;56421.91;;;-142.21;81.73
5053;BME280;2545;50.892;5.740;2024-02-21T06:55:39;56414.06;;;-142.21;81.96
5053;BME280;2545;50.892;5.740;2024-02-21T06:58:05;56398.38;;;-142.21;81.51
5053;BME280;2545;50.892;5.740;2024-02-21T07:00:30;56402.31;;;-142.21;81.51
5053;BME280;2545;50.892;5.740;2024-02-21T07:02:55;56406.22;;;-142.21;81.27
5053;BME280;2545;50.892;5.740;2024-02-21T07:05:21;56368.97;;;-142.21;81.55
5053;BME280;2545;50.892;5.740;2024-02-21T07:07:47;56386.63;;;-142.21;81.83
5053;BME280;2545;50.892;5.740;2024-02-21T07:10:12;56398.38;;;-142.21;81.23
5053;BME280;2545;50.892;5.740;2024-02-21T07:12:38;56414.06;;;-142.21;80.86
5053;BME280;2545;50.892;5.740;2024-02-21T07:15:07;56398.38;;;-142.21;80.43
5053;BME280;2545;50.892;5.740;2024-02-21T07:17:32;56378.78;;;-142.21;80.44
5053;BME280;2545;50.892;5.740;2024-02-21T07:19:58;56412.13;;;-142.21;80.32
5053;BME280;2545;50.892;5.740;2024-02-21T07:22:25;56408.19;;;-142.21;80.32
5053;BME280;2545;50.892;5.740;2024-02-21T07:24:53;56380.75;;;-142.21;79.78
5053;BME280;2545;50.892;5.740;2024-02-21T07:27:22;56398.38;;;-142.21;80.35
5053;BME280;2545;50.892;5.740;2024-02-21T07:29:47;56386.63;;;-142.21;80.27
5053;BME280;2545;50.892;5.740;2024-02-21T07:32:14;56390.53;;;-142.21;80.39
5053;BME280;2545;50.892;5.740;2024-02-21T07:34:39;56439.56;;;-142.21;80.34
5053;BME280;2545;50.892;5.740;2024-02-21T07:37:05;56390.53;;;-142.21;80.51
5053;BME280;2545;50.892;5.740;2024-02-21T07:39:30;56386.63;;;-142.21;80.03
5053;BME280;2545;50.892;5.740;2024-02-21T07:41:55;56416.03;;;-142.21;79.78
5053;BME280;2545;50.892;5.740;2024-02-21T07:44:21;56406.22;;;-142.21;79.67
5053;BME280;2545;50.892;5.740;2024-02-21T07:46:46;56386.63;;;-142.21;79.68
5053;BME280;2545;50.892;5.740;2024-02-21T07:49:12;56404.28;;;-142.21;79.69
5053;BME280;2545;50.892;5.740;2024-02-21T07:51:37;56406.22;;;-142.21;79.62
5053;BME280;2545;50.892;5.740;2024-02-21T07:54:02;56386.63;;;-142.21;78.82
5053;BME280;2545;50.892;5.740;2024-02-21T07:56:29;56408.19;;;-142.21;78.56
5053;BME280;2545;50.892;5.740;2024-02-21T07:58:54;56402.31;;;-142.21;78.53
5053;BME280;2545;50.892;5.740;2024-02-21T08:01:20;56406.22;;;-142.21;78.21
5053;BME280;2545;50.892;5.740;2024-02-21T08:03:48;56398.38;;;-142.21;78.18
5053;BME280;2545;50.892;5.740;2024-02-21T08:06:13;56392.50;;;-142.21;78.23
5053;BME280;2545;50.892;5.740;2024-02-21T08:08:39;56380.75;;;-142.21;77.96
5053;BME280;2545;50.892;5.740;2024-02-21T08:11:05;56386.63;;;-142.21;78.01
5053;BME280;2545;50.892;5.740;2024-02-21T08:13:30;56406.22;;;-142.21;78.37
5053;BME280;2545;50.892;5.740;2024-02-21T08:15:57;56396.44;;;-142.21;78.18
5053;BME280;2545;50.892;5.740;2024-02-21T08:18:23;56386.63;;;-142.21;77.65
5053;BME280;2545;50.892;5.740;2024-02-21T08:20:48;56418.00;;;-142.21;77.63
5053;BME280;2545;50.892;5.740;2024-02-21T08:23:18;56390.53;;;-142.21;77.32
5053;BME280;2545;50.892;5.740;2024-02-21T08:25:44;56431.72;;;-142.21;77.24
5053;BME280;2545;50.892;5.740;2024-02-21T08:28:09;56425.84;;;-142.21;77.26
5053;BME280;2545;50.892;5.740;2024-02-21T08:30:35;56423.88;;;-142.21;77.10
5053;BME280;2545;50.892;5.740;2024-02-21T08:33:00;56416.03;;;-142.21;77.43
5053;BME280;2545;50.892;5.740;2024-02-21T08:35:27;56402.31;;;-142.21;77.43
5053;BME280;2545;50.892;5.740;2024-02-21T08:37:52;56404.28;;;-142.21;77.58
5053;BME280;2545;50.892;5.740;2024-02-21T08:40:18;56457.22;;;-142.21;77.49
5053;BME280;2545;50.892;5.740;2024-02-21T08:42:46;56378.78;;;-142.21;77.50
5053;BME280;2545;50.892;5.740;2024-02-21T08:45:11;56388.59;;;-142.21;77.21
5053;BME280;2545;50.892;5.740;2024-02-21T08:47:39;56376.81;;;-142.21;76.65
5053;BME280;2545;50.892;5.740;2024-02-21T08:50:07;56382.69;;;-142.21;76.55
5053;BME280;2545;50.892;5.740;2024-02-21T08:52:32;56412.13;;;-142.21;76.14
5053;BME280;2545;50.892;5.740;2024-02-21T08:54:59;56410.16;;;-142.21;75.44
5053;BME280;2545;50.892;5.740;2024-02-21T08:57:24;56414.06;;;-142.21;74.76
5053;BME280;2545;50.892;5.740;2024-02-21T08:59:50;56402.31;;;-142.21;74.75
5053;BME280;2545;50.892;5.740;2024-02-21T09:02:15;56396.44;;;-142.21;74.06
5053;BME280;2545;50.892;5.740;2024-02-21T09:04:45;56396.44;;;-142.21;74.19
5053;BME280;2545;50.892;5.740;2024-02-21T09:07:10;56388.59;;;-142.21;74.02
5053;BME280;2545;50.892;5.740;2024-02-21T09:09:36;56339.56;;;-142.21;74.14
5053;BME280;2545;50.892;5.740;2024-02-21T09:12:06;56418.00;;;-142.21;74.06
5053;BME280;2545;50.892;5.740;2024-02-21T09:14:32;56400.34;;;-142.21;73.78
5053;BME280;2545;50.892;5.740;2024-02-21T09:16:58;56421.91;;;-142.21;73.33
5053;BME280;2545;50.892;5.740;2024-02-21T09:19:23;56402.31;;;-142.21;73.54
5053;BME280;2545;50.892;5.740;2024-02-21T09:21:48;56378.78;;;-142.21;73.42
5053;BME280;2545;50.892;5.740;2024-02-21T09:24:14;56402.31;;;-142.21;73.01
5053;BME280;2545;50.892;5.740;2024-02-21T09:26:39;56384.66;;;-142.21;72.77
5053;BME280;2545;50.892;5.740;2024-02-21T09:29:05;56406.22;;;-142.21;73.00
5053;BME280;2545;50.892;5.740;2024-02-21T09:31:32;56382.69;;;-142.21;72.80
5053;BME280;2545;50.892;5.740;2024-02-21T09:33:57;56384.66;;;-142.21;72.55
5053;BME280;2545;50.892;5.740;2024-02-21T09:36:22;56410.16;;;-142.21;72.73
5053;BME280;2545;50.892;5.740;2024-02-21T09:38:48;56412.13;;;-142.21;72.44
5053;BME280;2545;50.892;5.740;2024-02-21T09:41:18;56400.34;;;-142.21;72.67
5053;BME280;2545;50.892;5.740;2024-02-21T09:43:49;56400.34;;;-142.21;73.00
5053;BME280;2545;50.892;5.740;2024-02-21T09:46:17;56378.78;;;-142.21;72.61
5053;BME280;2545;50.892;5.740;2024-02-21T09:51:39;56398.38;;;-142.21;72.80
5053;BME280;2545;50.892;5.740;2024-02-21T09:54:07;56380.75;;;-142.21;72.65
5053;BME280;2545;50.892;5.740;2024-02-21T09:56:33;56372.91;;;-142.21;72.67
5053;BME280;2545;50.892;5.740;2024-02-21T09:58:58;56425.84;;;-142.21;72.85
5053;BME280;2545;50.892;5.740;2024-02-21T10:01:24;56414.06;;;-142.21;72.51
5053;BME280;2545;50.892;5.740;2024-02-21T10:03:49;56394.47;;;-142.21;72.96
5053;BME280;2545;50.892;5.740;2024-02-21T10:06:15;56390.53;;;-142.21;72.52
5053;BME280;2545;50.892;5.740;2024-02-21T10:08:40;56372.91;;;-142.21;72.91
5053;BME280;2545;50.892;5.740;2024-02-21T10:11:05;56382.69;;;-142.21;72.38
5053;BME280;2545;50.892;5.740;2024-02-21T10:13:34;56370.94;;;-142.21;72.28
5053;BME280;2545;50.892;5.740;2024-02-21T10:18:28;56398.38;;;-142.21;71.20
5053;BME280;2545;50.892;5.740;2024-02-21T10:21:05;56404.28;;;-142.21;70.93
5053;BME280;2545;50.892;5.740;2024-02-21T10:23:45;56359.16;;;-142.21;69.98
5053;BME280;2545;50.892;5.740;2024-02-21T10:26:11;56353.28;;;-142.21;70.12
5053;BME280;2545;50.892;5.740;2024-02-21T10:28:38;56365.06;;;-142.21;70.30
5053;BME280;2545;50.892;5.740;2024-02-21T10:31:21;56378.78;;;-142.21;71.03
5053;BME280;2545;50.892;5.740;2024-02-21T10:33:56;56376.81;;;-142.21;71.20
5053;BME280;2545;50.892;5.740;2024-02-21T10:36:23;56359.16;;;-142.21;70.78
5053;BME280;2545;50.892;5.740;2024-02-21T10:38:49;56384.66;;;-142.21;69.91
5053;BME280;2545;50.892;5.740;2024-02-21T10:41:15;56429.75;;;-142.21;70.26
5053;BME280;2545;50.892;5.740;2024-02-21T10:43:46;56406.22;;;-142.21;69.80
5053;BME280;2545;50.892;5.740;2024-02-21T10:46:15;56368.97;;;-142.21;69.83
5053;BME280;2545;50.892;5.740;2024-02-21T10:48:44;56414.06;;;-142.21;69.01
5053;BME280;2545;50.892;5.740;2024-02-21T10:51:17;56416.03;;;-142.21;69.78
5053;BME280;2545;50.892;5.740;2024-02-21T10:56:26;56423.88;;;-142.21;70.04
5053;BME280;2545;50.892;5.740;2024-02-21T10:58:52;56402.31;;;-142.21;70.39
5053;BME280;2545;50.892;5.740;2024-02-21T11:01:18;56376.81;;;-142.21;70.23
5053;BME280;2545;50.892;5.740;2024-02-21T11:03:45;56367.00;;;-142.21;69.83
5053;BME280;2545;50.892;5.740;2024-02-21T11:06:12;56347.41;;;-142.21;69.95
5053;BME280;2545;50.892;5.740;2024-02-21T11:08:38;56402.31;;;-142.21;69.50
5053;BME280;2545;50.892;5.740;2024-02-21T11:11:05;56339.56;;;-142.21;69.13
5053;BME280;2545;50.892;5.740;2024-02-21T11:13:37;56370.94;;;-142.21;68.76
5053;BME280;2545;50.892;5.740;2024-02-21T11:16:10;56380.75;;;-142.21;68.47
5053;BME280;2545;50.892;5.740;2024-02-21T11:18:38;56378.78;;;-142.21;68.05
5053;BME280;2545;50.892;5.740;2024-02-21T11:21:04;56392.50;;;-142.21;67.81
5053;BME280;2545;50.892;5.740;2024-02-21T11:23:32;56367.00;;;-142.21;68.07
5053;BME280;2545;50.892;5.740;2024-02-21T11:26:08;56376.81;;;-142.21;66.87
5053;BME280;2545;50.892;5.740;2024-02-21T11:28:34;56386.63;;;-142.21;66.72
5053;BME280;2545;50.892;5.740;2024-02-21T11:31:08;56388.59;;;-142.21;67.25
5053;BME280;2545;50.892;5.740;2024-02-21T11:33:35;56425.84;;;-142.21;67.24
5053;BME280;2545;50.892;5.740;2024-02-21T11:36:01;56353.28;;;-142.21;67.10
5053;BME280;2545;50.892;5.740;2024-02-21T11:38:26;56431.72;;;-142.21;66.16
5053;BME280;2545;50.892;5.740;2024-02-21T11:40:52;56370.94;;;-142.21;65.68
5053;BME280;2545;50.892;5.740;2024-02-21T11:43:17;56388.59;;;-142.21;64.44
5053;BME280;2545;50.892;5.740;2024-02-21T11:45:42;56357.22;;;-142.21;65.00
5053;BME280;2545;50.892;5.740;2024-02-21T11:48:08;56394.47;;;-142.21;63.87
5053;BME280;2545;50.892;5.740;2024-02-21T11:50:36;56404.28;;;-142.21;63.98
5053;BME280;2545;50.892;5.740;2024-02-21T11:53:02;56374.84;;;-142.21;63.90
5053;BME280;2545;50.892;5.740;2024-02-21T11:55:28;56386.63;;;-142.21;64.14
5053;BME280;2545;50.892;5.740;2024-02-21T11:57:53;56400.34;;;-142.21;63.28
5053;BME280;2545;50.892;5.740;2024-02-21T12:00:19;56339.56;;;-142.21;63.46
5053;BME280;2545;50.892;5.740;2024-02-21T12:02:49;56370.94;;;-142.21;63.51
5053;BME280;2545;50.892;5.740;2024-02-21T12:05:16;56357.22;;;-142.21;62.90
5053;BME280;2545;50.892;5.740;2024-02-21T12:07:41;56370.94;;;-142.21;62.70
5053;BME280;2545;50.892;5.740;2024-02-21T12:10:10;56341.53;;;-142.21;62.14
5053;BME280;2545;50.892;5.740;2024-02-21T12:12:36;56359.16;;;-142.21;62.04
5053;BME280;2545;50.892;5.740;2024-02-21T12:15:03;56423.88;;;-142.21;62.35
5053;BME280;2545;50.892;5.740;2024-02-21T12:17:33;56378.78;;;-142.21;62.46
5053;BME280;2545;50.892;5.740;2024-02-21T12:20:00;56398.38;;;-142.21;62.21
5053;BME280;2545;50.892;5.740;2024-02-21T12:22:26;56335.63;;;-142.21;61.40
5053;BME280;2545;50.892;5.740;2024-02-21T12:24:53;56368.97;;;-142.21;59.61
5053;BME280;2545;50.892;5.740;2024-02-21T12:27:18;56363.09;;;-142.21;59.15
5053;BME280;2545;50.892;5.740;2024-02-21T12:29:44;56363.09;;;-142.21;58.30
5053;BME280;2545;50.892;5.740;2024-02-21T12:32:09;56349.38;;;-142.21;58.92
5053;BME280;2545;50.892;5.740;2024-02-21T12:34:35;56396.44;;;-142.21;59.29
5053;BME280;2545;50.892;5.740;2024-02-21T12:37:01;56388.59;;;-142.21;59.02
5053;BME280;2545;50.892;5.740;2024-02-21T12:39:28;56319.94;;;-142.21;59.72
5053;BME280;2545;50.892;5.740;2024-02-21T12:41:54;56351.31;;;-142.21;59.74
5053;BME280;2545;50.892;5.740;2024-02-21T12:44:22;56363.09;;;-142.21;60.06
5053;BME280;2545;50.892;5.740;2024-02-21T12:46:49;56372.91;;;-142.21;60.88
5053;BME280;2545;50.892;5.740;2024-02-21T12:49:18;56331.72;;;-142.21;62.07
5053;BME280;2545;50.892;5.740;2024-02-21T12:51:43;56374.84;;;-142.21;62.60
5053;BME280;2545;50.892;5.740;2024-02-21T12:54:12;56351.31;;;-142.21;63.50
5053;BME280;2545;50.892;5.740;2024-02-21T12:56:37;56353.28;;;-142.21;63.39
5053;BME280;2545;50.892;5.740;2024-02-21T12:59:03;56359.16;;;-142.21;63.52
5053;BME280;2545;50.892;5.740;2024-02-21T13:01:29;56363.09;;;-142.21;62.95
5053;BME280;2545;50.892;5.740;2024-02-21T13:03:54;56349.38;;;-142.21;63.51